createdAt,value
2023-07-06T00:00:09.228Z,99753.66
2023-07-06T00:03:15.828Z,99779.69
2023-07-06T00:06:18.369Z,99776.41
2023-07-06T00:09:21.228Z,99779.94
2023-07-06T00:12:24.556Z,99779.34
2023-07-06T00:15:28.608Z,99759.84
2023-07-06T00:18:30.899Z,99779.84
2023-07-06T00:21:33.460Z,99778.16
2023-07-06T00:24:35.564Z,99780.84
2023-07-06T00:27:38.825Z,99768.59
2023-07-06T00:30:47.879Z,99780.84
2023-07-06T00:33:53.404Z,99773.41
2023-07-06T00:36:55.426Z,99772.44
2023-07-06T00:39:57.394Z,99766.78
2023-07-06T00:43:00.861Z,99766.19
2023-07-06T00:46:10.740Z,99765.00
2023-07-06T00:49:18.279Z,99767.50
2023-07-06T00:52:21.882Z,99762.34
2023-07-06T00:55:30.912Z,99767.13
2023-07-06T00:58:38.299Z,99767.47
2023-07-06T01:01:43.234Z,99765.56
2023-07-06T01:04:45.630Z,99768.03
2023-07-06T01:07:49.819Z,99768.50
2023-07-06T01:10:54.037Z,99755.16
2023-07-06T01:13:58.254Z,99758.88
2023-07-06T01:17:07.233Z,99750.06
2023-07-06T01:20:22.319Z,99763.28
2023-07-06T01:23:46.342Z,99743.13
2023-07-06T01:27:08.498Z,99758.00
2023-07-06T01:30:31.166Z,99763.44
2023-07-06T01:33:41.444Z,99756.03
2023-07-06T01:36:48.081Z,99750.28
2023-07-06T01:39:51.959Z,99749.50
2023-07-06T01:42:53.842Z,99730.97
2023-07-06T01:45:56.560Z,99739.44
2023-07-06T01:48:59.960Z,99756.75
2023-07-06T01:52:10.389Z,99748.91
2023-07-06T01:55:22.370Z,99733.22
2023-07-06T01:58:33.470Z,99749.84
2023-07-06T02:01:42.314Z,99738.06
2023-07-06T02:04:45.801Z,99739.91
2023-07-06T02:07:50.675Z,99744.25
2023-07-06T02:10:54.145Z,99751.09
2023-07-06T02:13:56.118Z,99748.19
2023-07-06T02:16:58.235Z,99747.59
2023-07-06T02:20:01.643Z,99752.00
2023-07-06T02:23:04.165Z,99758.41
2023-07-06T02:26:06.043Z,99767.75
2023-07-06T02:29:07.879Z,99756.63
2023-07-06T02:32:11.062Z,99772.56
2023-07-06T02:35:14.411Z,99784.13
2023-07-06T02:38:19.295Z,99783.09
2023-07-06T02:41:21.099Z,99775.88
2023-07-06T02:44:23.189Z,99789.09
2023-07-06T02:47:25.253Z,99795.25
2023-07-06T02:50:28.971Z,99792.34
2023-07-06T02:53:31.089Z,99783.47
2023-07-06T02:56:33.544Z,99784.06
2023-07-06T02:59:36.130Z,99784.47
2023-07-06T03:02:37.997Z,99768.75
2023-07-06T03:05:44.974Z,99755.38
2023-07-06T03:08:48.768Z,99777.06
2023-07-06T03:11:51.122Z,99793.78
2023-07-06T03:14:52.915Z,99783.50
2023-07-06T03:17:54.796Z,99797.56
2023-07-06T03:20:58.451Z,99794.06
2023-07-06T03:24:00.351Z,99799.84
2023-07-06T03:27:03.453Z,99808.75
2023-07-06T03:30:08.605Z,99805.41
2023-07-06T03:33:10.631Z,99807.50
2023-07-06T03:36:14.400Z,99814.31
2023-07-06T03:39:16.448Z,99815.31
2023-07-06T03:42:18.941Z,99825.41
2023-07-06T03:45:21.056Z,99825.19
2023-07-06T03:48:23.250Z,99819.22
2023-07-06T03:51:26.493Z,99814.06
2023-07-06T03:54:28.899Z,99826.25
2023-07-06T03:57:31.590Z,99821.66
2023-07-06T04:00:35.358Z,99824.34
2023-07-06T04:03:38.048Z,99806.38
2023-07-06T04:06:42.417Z,99834.63
2023-07-06T04:09:45.707Z,99841.63
2023-07-06T04:12:48.130Z,99828.84
2023-07-06T04:15:50.579Z,99811.69
2023-07-06T04:18:53.094Z,99800.72
2023-07-06T04:21:58.288Z,99828.59
2023-07-06T04:25:00.117Z,99837.25
2023-07-06T04:28:05.164Z,99837.03
2023-07-06T04:31:06.913Z,99853.38
2023-07-06T04:34:08.882Z,99863.94
2023-07-06T04:37:12.066Z,99858.75
2023-07-06T04:40:18.985Z,99845.34
2023-07-06T04:43:22.078Z,99852.34
2023-07-06T04:46:23.994Z,99850.25
2023-07-06T04:49:27.007Z,99820.13
2023-07-06T04:52:31.073Z,99848.38
2023-07-06T04:55:33.051Z,99837.25
2023-07-06T04:58:35.584Z,99841.69
2023-07-06T05:01:37.420Z,99843.19
2023-07-06T05:04:41.667Z,99840.25
2023-07-06T05:07:44.883Z,99841.31
2023-07-06T05:10:52.476Z,99842.56
2023-07-06T05:13:54.643Z,99829.19
2023-07-06T05:16:56.587Z,99852.13
2023-07-06T05:19:59.357Z,99848.00
2023-07-06T05:23:04.917Z,99857.09
2023-07-06T05:26:07.180Z,99855.25
2023-07-06T05:29:09.711Z,99843.88
2023-07-06T05:32:11.575Z,99859.78
2023-07-06T05:35:14.651Z,99854.00
2023-07-06T05:38:17.935Z,99868.91
2023-07-06T05:41:19.802Z,99875.09
2023-07-06T05:44:21.785Z,99879.00
2023-07-06T05:47:23.765Z,99872.66
2023-07-06T05:50:25.803Z,99879.09
2023-07-06T05:53:29.156Z,99884.47
2023-07-06T05:56:32.315Z,99883.91
2023-07-06T05:59:34.377Z,99880.44
2023-07-06T06:02:37.249Z,99813.13
2023-07-06T06:05:41.428Z,99808.28
2023-07-06T06:08:45.099Z,99821.59
2023-07-06T06:11:48.061Z,99832.38
2023-07-06T06:14:52.014Z,99829.94
2023-07-06T06:17:54.269Z,99838.78
2023-07-06T06:20:59.845Z,99841.28
2023-07-06T06:24:09.534Z,99853.47
2023-07-06T06:27:12.435Z,99858.81
2023-07-06T06:30:16.105Z,99850.00
2023-07-06T06:33:19.182Z,99922.06
2023-07-06T06:36:23.120Z,99918.00
2023-07-06T06:39:26.428Z,99925.06
2023-07-06T06:42:29.974Z,99931.03
2023-07-06T06:45:33.209Z,99915.94
2023-07-06T06:48:35.292Z,99939.72
2023-07-06T06:51:37.288Z,99943.25
2023-07-06T06:54:41.766Z,99945.69
2023-07-06T06:57:44.077Z,99946.25
2023-07-06T07:00:46.508Z,99951.19
2023-07-06T07:03:48.681Z,99924.50
2023-07-06T07:06:51.499Z,99903.56
2023-07-06T07:09:55.118Z,99913.19
2023-07-06T07:12:58.188Z,99898.63
2023-07-06T07:16:00.538Z,99911.44
2023-07-06T07:19:05.443Z,99868.91
2023-07-06T07:22:08.133Z,99891.91
2023-07-06T07:25:11.588Z,99893.75
2023-07-06T07:28:17.314Z,99884.28
2023-07-06T07:31:20.269Z,99899.66
2023-07-06T07:34:22.644Z,99898.03
2023-07-06T07:37:24.592Z,99899.75
2023-07-06T07:40:28.771Z,99879.56
2023-07-06T07:43:35.813Z,99893.22
2023-07-06T07:46:38.772Z,99896.25
2023-07-06T07:49:42.884Z,99900.06
2023-07-06T07:52:45.487Z,99897.56
2023-07-06T07:55:48.687Z,99902.06
2023-07-06T07:58:50.975Z,99892.84
2023-07-06T08:01:53.755Z,99878.09
2023-07-06T08:04:58.308Z,99888.06
2023-07-06T08:08:01.286Z,99881.56
2023-07-06T08:11:06.425Z,99877.69
2023-07-06T08:14:12.265Z,99882.03
2023-07-06T08:17:15.582Z,99879.03
2023-07-06T08:20:51.854Z,99875.31
2023-07-06T08:23:48.725Z,99880.84
2023-07-06T08:26:52.055Z,99870.28
2023-07-06T08:29:54.315Z,99892.31
2023-07-06T08:32:56.823Z,99872.56
2023-07-06T08:36:02.619Z,99874.56
2023-07-06T08:39:07.101Z,99884.63
2023-07-06T08:42:11.935Z,99884.34
2023-07-06T08:45:18.659Z,99892.19
2023-07-06T08:48:26.576Z,99860.94
2023-07-06T08:51:36.116Z,99885.03
2023-07-06T08:54:44.678Z,99876.69
2023-07-06T08:57:48.094Z,99876.25
2023-07-06T09:00:50.045Z,99895.13
2023-07-06T09:03:57.071Z,99896.75
2023-07-06T09:07:01.553Z,99885.44
2023-07-06T09:10:23.192Z,99860.63
2023-07-06T09:13:29.103Z,99885.19
2023-07-06T09:16:35.826Z,99883.72
2023-07-06T09:19:40.026Z,99880.66
2023-07-06T09:22:42.545Z,99874.56
2023-07-06T09:25:46.996Z,99886.03
2023-07-06T09:28:53.109Z,99892.50
2023-07-06T09:32:10.770Z,99869.09
2023-07-06T09:35:21.517Z,99890.25
2023-07-06T09:38:25.496Z,99890.78
2023-07-06T09:41:30.523Z,99876.81
2023-07-06T09:44:33.737Z,99896.72
2023-07-06T09:47:36.296Z,99902.31
2023-07-06T09:50:44.273Z,99897.97
2023-07-06T09:53:50.742Z,99894.44
2023-07-06T09:56:52.914Z,99893.63
2023-07-06T09:59:56.144Z,99895.66
2023-07-06T10:03:02.143Z,99890.00
2023-07-06T10:06:18.905Z,99892.56
2023-07-06T10:09:26.805Z,99890.34
2023-07-06T10:12:39.691Z,99895.91
2023-07-06T10:15:51.632Z,99892.91
2023-07-06T10:19:00.981Z,99865.09
2023-07-06T10:22:12.306Z,99886.88
2023-07-06T10:25:20.524Z,99876.78
2023-07-06T10:28:27.496Z,99883.09
2023-07-06T10:31:35.895Z,99864.25
2023-07-06T10:34:42.498Z,99883.47
2023-07-06T10:37:45.117Z,99862.66
2023-07-06T10:40:51.388Z,99866.00
2023-07-06T10:43:57.394Z,99875.81
2023-07-06T10:47:00.663Z,99875.81
2023-07-06T10:50:24.992Z,99871.22
2023-07-06T10:53:36.008Z,99890.22
2023-07-06T10:56:42.440Z,99897.38
2023-07-06T10:59:49.533Z,99876.88
2023-07-06T11:02:57.512Z,99880.81
2023-07-06T11:06:07.770Z,99863.06
2023-07-06T11:09:15.516Z,99890.41
2023-07-06T11:12:20.816Z,99882.22
2023-07-06T11:15:26.588Z,99872.94
2023-07-06T11:18:36.550Z,99881.75
2023-07-06T11:21:44.545Z,99880.75
2023-07-06T11:24:50.844Z,99849.13
2023-07-06T11:27:58.973Z,99868.78
2023-07-06T11:31:09.494Z,99853.09
2023-07-06T11:34:32.567Z,99851.44
2023-07-06T11:37:58.495Z,99840.81
2023-07-06T11:41:13.874Z,99829.53
2023-07-06T11:44:47.254Z,99858.59
2023-07-06T11:48:05.328Z,99852.41
2023-07-06T11:51:10.946Z,99864.72
2023-07-06T11:54:31.132Z,99846.59
2023-07-06T11:57:46.659Z,99847.22
2023-07-06T12:00:55.574Z,99860.25
2023-07-06T12:03:59.077Z,99840.03
2023-07-06T12:07:24.170Z,99848.31
2023-07-06T12:10:26.478Z,99850.59
2023-07-06T12:13:30.804Z,99855.47
2023-07-06T12:16:40.396Z,99849.41
2023-07-06T12:19:43.178Z,99854.13
2023-07-06T12:22:54.269Z,99827.16
2023-07-06T12:25:57.199Z,99838.31
2023-07-06T12:29:01.388Z,99846.50
2023-07-06T12:32:09.050Z,99830.28
2023-07-06T12:35:13.148Z,99819.69
2023-07-06T12:38:20.699Z,99823.16
2023-07-06T12:41:22.878Z,99817.63
2023-07-06T12:44:28.329Z,99822.22
2023-07-06T12:47:34.935Z,99811.66
2023-07-06T12:50:41.072Z,99821.53
2023-07-06T12:53:45.055Z,99830.59
2023-07-06T12:56:57.188Z,99815.06
2023-07-06T13:00:11.771Z,99805.72
2023-07-06T13:03:14.692Z,99819.91
2023-07-06T13:06:17.510Z,99801.06
2023-07-06T13:09:22.913Z,99806.97
2023-07-06T13:12:32.871Z,99804.75
2023-07-06T13:15:39.507Z,99801.16
2023-07-06T13:18:42.227Z,99822.28
2023-07-06T13:21:44.228Z,99817.25
2023-07-06T13:24:48.505Z,99820.13
2023-07-06T13:27:50.935Z,99802.69
2023-07-06T13:30:54.295Z,99807.50
2023-07-06T13:33:57.827Z,99807.91
2023-07-06T13:36:59.771Z,99808.88
2023-07-06T13:40:05.631Z,99733.34
2023-07-06T13:43:14.601Z,99781.63
2023-07-06T13:46:18.042Z,99814.88
2023-07-06T13:49:20.586Z,99811.94
2023-07-06T13:52:22.481Z,99788.47
2023-07-06T13:55:29.180Z,99790.72
2023-07-06T13:58:31.584Z,99803.03
2023-07-06T14:01:33.473Z,99821.69
2023-07-06T14:04:35.670Z,99799.34
2023-07-06T14:07:37.541Z,99810.31
2023-07-06T14:10:40.943Z,99829.63
2023-07-06T14:13:45.472Z,99811.06
2023-07-06T14:16:48.978Z,99825.72
2023-07-06T14:20:02.699Z,99827.56
2023-07-06T14:23:06.926Z,99823.69
2023-07-06T14:26:10.590Z,99821.81
2023-07-06T14:29:12.883Z,99822.69
2023-07-06T14:32:16.668Z,99827.31
2023-07-06T14:35:19.850Z,99837.84
2023-07-06T14:38:22.555Z,99841.47
2023-07-06T14:41:26.852Z,99841.41
2023-07-06T14:44:29.488Z,99833.06
2023-07-06T14:47:31.615Z,99837.28
2023-07-06T14:50:35.204Z,99833.19
2023-07-06T14:53:38.237Z,99831.63
2023-07-06T14:56:41.551Z,99823.69
2023-07-06T14:59:44.745Z,99794.03
2023-07-06T15:02:50.289Z,99804.72
2023-07-06T15:05:54.245Z,99839.06
2023-07-06T15:08:56.406Z,99815.91
2023-07-06T15:12:00.006Z,99829.66
2023-07-06T15:15:01.979Z,99830.06
2023-07-06T15:18:04.638Z,99824.84
2023-07-06T15:21:08.186Z,99833.06
2023-07-06T15:24:10.716Z,99836.34
2023-07-06T15:27:15.020Z,99816.41
2023-07-06T15:30:17.547Z,99823.72
2023-07-06T15:33:19.386Z,99833.25
2023-07-06T15:36:21.954Z,99833.78
2023-07-06T15:39:25.095Z,99820.41
2023-07-06T15:42:28.704Z,99839.06
2023-07-06T15:45:30.749Z,99834.56
2023-07-06T15:48:33.420Z,99824.28
2023-07-06T15:51:35.320Z,99828.63
2023-07-06T15:54:37.265Z,99819.19
2023-07-06T15:57:40.593Z,99827.81
2023-07-06T16:00:42.546Z,99823.97
2023-07-06T16:03:45.363Z,99837.78
2023-07-06T16:06:47.327Z,99825.75
2023-07-06T16:09:49.234Z,99810.94
2023-07-06T16:12:52.676Z,99825.34
2023-07-06T16:15:54.922Z,99841.19
2023-07-06T16:18:57.258Z,99776.13
2023-07-06T16:21:59.183Z,99838.00
2023-07-06T16:25:01.271Z,99806.41
2023-07-06T16:28:04.950Z,99831.75
2023-07-06T16:31:07.693Z,99838.19
2023-07-06T16:34:09.846Z,99847.66
2023-07-06T16:37:11.714Z,99839.78
2023-07-06T16:40:14.257Z,99838.91
2023-07-06T16:43:17.837Z,99844.97
2023-07-06T16:46:20.112Z,99844.09
2023-07-06T16:49:21.980Z,99836.63
2023-07-06T16:52:24.329Z,99841.13
2023-07-06T16:55:27.202Z,99847.25
2023-07-06T16:58:31.444Z,99849.59
2023-07-06T17:01:35.307Z,99824.25
2023-07-06T17:04:37.313Z,99856.69
2023-07-06T17:07:39.169Z,99837.75
2023-07-06T17:10:41.629Z,99866.31
2023-07-06T17:13:45.038Z,99873.94
2023-07-06T17:16:47.163Z,99875.19
2023-07-06T17:19:49.937Z,99868.63
2023-07-06T17:22:51.895Z,99865.59
2023-07-06T17:25:54.179Z,99856.19
2023-07-06T17:28:57.602Z,99882.16
2023-07-06T17:31:59.541Z,99860.84
2023-07-06T17:35:02.991Z,99869.16
2023-07-06T17:38:05.855Z,99873.63
2023-07-06T17:41:09.717Z,99895.16
2023-07-06T17:44:14.048Z,99892.28
2023-07-06T17:47:16.578Z,99884.13
2023-07-06T17:50:19.579Z,99911.66
2023-07-06T17:53:22.639Z,99901.47
2023-07-06T17:56:25.003Z,99909.53
2023-07-06T17:59:30.105Z,99919.41
2023-07-06T18:02:32.752Z,99894.59
2023-07-06T18:05:35.639Z,99931.22
2023-07-06T18:08:38.701Z,99898.75
2023-07-06T18:11:41.301Z,99916.38
2023-07-06T18:14:45.407Z,99945.22
2023-07-06T18:17:49.211Z,99927.66
2023-07-06T18:20:51.425Z,99951.41
2023-07-06T18:23:55.238Z,99955.41
2023-07-06T18:26:57.659Z,99942.50
2023-07-06T18:30:01.659Z,99958.09
2023-07-06T18:33:07.240Z,99952.50
2023-07-06T18:36:09.574Z,99896.38
2023-07-06T18:39:12.142Z,99963.13
2023-07-06T18:42:14.268Z,99957.06
2023-07-06T18:45:28.765Z,99961.81
2023-07-06T18:48:39.523Z,99954.06
2023-07-06T18:51:42.141Z,99963.03
2023-07-06T18:54:44.219Z,99921.22
2023-07-06T18:57:46.701Z,99962.34
2023-07-06T19:00:50.421Z,99964.19
2023-07-06T19:03:52.877Z,99995.09
2023-07-06T19:06:55.662Z,100001.03
2023-07-06T19:09:58.271Z,99999.63
2023-07-06T19:13:01.979Z,99995.28
2023-07-06T19:16:06.364Z,100003.66
2023-07-06T19:19:09.043Z,100011.41
2023-07-06T19:22:11.646Z,99995.09
2023-07-06T19:25:14.029Z,100015.06
2023-07-06T19:28:16.178Z,99991.41
2023-07-06T19:31:20.704Z,99979.41
2023-07-06T19:34:23.436Z,100007.91
2023-07-06T19:37:26.868Z,99991.69
2023-07-06T19:40:29.614Z,100010.47
2023-07-06T19:43:32.464Z,99971.91
2023-07-06T19:46:36.442Z,100013.81
2023-07-06T19:49:39.146Z,100013.66
2023-07-06T19:52:42.590Z,100009.53
2023-07-06T19:55:45.338Z,100011.81
2023-07-06T19:58:47.438Z,99935.56
2023-07-06T20:01:52.127Z,100010.63
2023-07-06T20:05:00.287Z,100053.50
2023-07-06T20:08:03.607Z,100018.81
2023-07-06T20:11:06.353Z,100059.75
2023-07-06T20:14:09.697Z,100052.56
2023-07-06T20:17:15.482Z,100064.16
2023-07-06T20:20:17.925Z,100056.25
2023-07-06T20:23:21.128Z,100073.50
2023-07-06T20:26:23.697Z,100078.47
2023-07-06T20:29:26.383Z,100072.03
2023-07-06T20:32:30.264Z,100072.00
2023-07-06T20:35:32.827Z,100070.16
2023-07-06T20:38:36.565Z,100068.72
2023-07-06T20:41:39.031Z,100074.94
2023-07-06T20:44:41.616Z,100084.44
2023-07-06T20:47:45.045Z,100079.94
2023-07-06T20:50:47.588Z,100075.19
2023-07-06T20:53:52.123Z,100092.56
2023-07-06T20:56:54.340Z,100091.75
2023-07-06T20:59:56.618Z,100091.53
2023-07-06T21:03:01.121Z,100095.91
2023-07-06T21:06:04.229Z,100091.19
2023-07-06T21:09:06.117Z,100091.19
2023-07-06T21:12:08.626Z,100088.75
2023-07-06T21:15:11.125Z,100086.25
2023-07-06T21:18:14.395Z,100097.41
2023-07-06T21:21:16.292Z,100093.47
2023-07-06T21:24:19.494Z,100080.69
2023-07-06T21:27:21.422Z,100083.75
2023-07-06T21:30:25.499Z,100106.88
2023-07-06T21:33:28.731Z,100107.06
2023-07-06T21:36:32.470Z,100107.06
2023-07-06T21:39:34.396Z,100103.56
2023-07-06T21:42:36.477Z,100098.00
2023-07-06T21:45:38.472Z,100110.41
2023-07-06T21:48:43.939Z,100072.59
2023-07-06T21:51:46.472Z,100100.53
2023-07-06T21:54:48.441Z,100103.81
2023-07-06T21:57:50.338Z,100108.81
2023-07-06T22:00:52.598Z,100104.06
2023-07-06T22:03:56.828Z,100091.25
2023-07-06T22:06:58.781Z,100101.59
2023-07-06T22:10:01.395Z,100092.88
2023-07-06T22:13:03.704Z,100092.91
2023-07-06T22:16:05.775Z,100091.03
2023-07-06T22:19:10.079Z,100077.56
2023-07-06T22:22:11.979Z,100074.06
2023-07-06T22:25:14.867Z,100083.34
2023-07-06T22:28:17.743Z,100071.78
2023-07-06T22:31:19.641Z,100087.75
2023-07-06T22:34:23.835Z,100085.06
2023-07-06T22:37:25.981Z,100072.00
2023-07-06T22:40:31.149Z,100100.38
2023-07-06T22:43:33.060Z,100099.53
2023-07-06T22:46:35.096Z,100095.19
2023-07-06T22:49:40.568Z,100104.94
2023-07-06T22:52:42.441Z,100107.22
2023-07-06T22:55:44.660Z,100099.97
2023-07-06T22:58:46.629Z,100099.13
2023-07-06T23:01:49.404Z,100095.63
2023-07-06T23:04:52.759Z,100106.34
2023-07-06T23:07:57.108Z,100111.31
2023-07-06T23:10:59.502Z,100030.25
2023-07-06T23:14:02.314Z,100105.75
2023-07-06T23:17:04.749Z,100109.88
2023-07-06T23:20:09.565Z,100100.19
2023-07-06T23:23:12.320Z,100077.41
2023-07-06T23:26:16.528Z,100104.72
2023-07-06T23:29:18.631Z,100096.44
2023-07-06T23:32:22.892Z,100093.97
2023-07-06T23:35:26.225Z,100107.63
2023-07-06T23:38:28.068Z,100111.97
2023-07-06T23:41:30.641Z,100100.59
2023-07-06T23:44:32.545Z,100111.53
2023-07-06T23:47:35.533Z,100090.63
2023-07-06T23:50:38.821Z,100116.91
2023-07-06T23:53:41.260Z,100115.25
2023-07-06T23:56:43.128Z,100114.19
2023-07-06T23:59:45.351Z,100123.53
